Time;durP1;ratioP1;P1;durP2;ratioP2;P2;SDS_P1;SDS_P2;PMS_P1;PMS_P2;Temp;Humidity;BMP_temperature;BMP_pressure;BME280_temperature;BME280_humidity;BME280_pressure;Samples;Min_cycle;Max_cycle;Signal;HPM_P1;HPM_P2
2022/06/27 00:03:20;;;;;;;12.82;11.68;;;;;;;22.00;85.00;100129.11;2935896;80;21042;-85
2022/06/27 00:07:21;;;;;;;12.63;11.53;;;;;;;21.94;86.01;100125.88;2939367;79;21014;-86
2022/06/27 00:11:23;;;;;;;13.08;11.73;;;;;;;21.91;86.60;100130.34;2957395;79;20980;-86
2022/06/27 00:15:24;;;;;;;14.15;12.85;;;;;;;21.82;88.71;100128.34;2917430;80;21009;-86
2022/06/27 00:19:26;;;;;;;14.38;12.78;;;;;;;21.80;88.72;100135.30;2931899;80;21038;-86
2022/06/27 00:23:26;;;;;;;13.95;12.37;;;;;;;21.88;89.08;100128.87;2941674;80;21609;-85
2022/06/27 00:27:27;;;;;;;13.08;11.78;;;;;;;21.87;89.31;100129.91;2904631;79;21035;-86
2022/06/27 00:31:29;;;;;;;13.93;12.60;;;;;;;21.94;88.69;100125.88;2984467;78;21034;-86
2022/06/27 00:35:30;;;;;;;15.90;12.82;;;;;;;21.98;87.57;100131.19;2947661;78;21698;-86
2022/06/27 00:39:31;;;;;;;14.65;12.28;;;;;;;21.99;87.84;100127.97;2973618;78;21054;-86
2022/06/27 00:43:32;;;;;;;12.78;11.57;;;;;;;22.00;87.08;100129.64;2883853;80;21069;-86
2022/06/27 00:47:33;;;;;;;13.75;12.43;;;;;;;22.03;87.44;100127.88;2911942;80;21066;-86
2022/06/27 00:51:34;;;;;;;14.33;12.25;;;;;;;22.08;87.44;100133.50;2927136;80;21066;-86
2022/06/27 00:55:35;;;;;;;15.32;13.00;;;;;;;21.97;88.41;100134.94;2953010;79;21051;-86
2022/06/27 00:59:37;;;;;;;15.00;13.58;;;;;;;21.92;88.16;100140.98;2882321;79;21046;-85
2022/06/27 01:03:38;;;;;;;15.32;13.38;;;;;;;21.94;88.24;100132.14;2972008;79;21062;-86
2022/06/27 01:07:40;;;;;;;13.83;12.50;;;;;;;21.92;87.68;100137.43;2926525;80;21003;-86
2022/06/27 01:11:41;;;;;;;15.58;13.40;;;;;;;21.80;87.91;100138.55;2911730;80;21058;-86
2022/06/27 01:15:45;;;;;;;16.25;14.75;;;;;;;21.67;87.90;100137.99;2854467;80;21023;-86
2022/06/27 01:19:46;;;;;;;17.95;14.23;;;;;;;21.61;87.72;100134.69;2876015;80;21023;-86
2022/06/27 01:23:48;;;;;;;14.63;12.60;;;;;;;21.54;87.57;100139.56;2905923;80;21041;-86
2022/06/27 01:27:49;;;;;;;20.05;13.30;;;;;;;21.51;87.55;100144.03;2907633;80;20996;-85
2022/06/27 01:31:50;;;;;;;15.93;12.43;;;;;;;21.37;88.96;100136.89;2861561;80;21029;-86
2022/06/27 01:36:41;;;;;;;18.87;14.13;;;;;;;21.18;90.47;100144.70;2935423;80;21034;-86
2022/06/27 01:39:56;;;;;;;16.70;13.30;;;;;;;21.03;91.18;100144.82;2935278;79;21025;-86
2022/06/27 01:43:57;;;;;;;14.65;12.50;;;;;;;21.01;91.11;100144.69;2929796;79;21031;-85
2022/06/27 01:47:59;;;;;;;15.10;13.22;;;;;;;20.91;90.86;100147.75;2910976;80;21042;-86
2022/06/27 01:52:01;;;;;;;17.12;14.73;;;;;;;20.72;90.62;100147.91;2918157;80;20998;-86
2022/06/27 01:56:04;;;;;;;13.05;11.85;;;;;;;20.54;90.99;100140.61;2913964;80;21033;-86
2022/06/27 02:00:07;;;;;;;15.45;13.85;;;;;;;20.50;91.66;100132.55;2942321;80;21065;-85
2022/06/27 02:04:11;;;;;;;18.87;16.40;;;;;;;20.48;91.81;100132.45;2873103;79;21018;-86
2022/06/27 02:08:14;;;;;;;24.45;16.87;;;;;;;20.55;92.88;100126.07;2951530;80;21026;-86
2022/06/27 02:12:19;;;;;;;18.55;16.62;;;;;;;20.64;93.14;100128.11;2894636;80;21082;-86
2022/06/27 02:16:20;;;;;;;20.25;18.17;;;;;;;20.76;93.08;100131.61;2921074;80;21506;-87
2022/06/27 02:20:22;;;;;;;20.45;17.60;;;;;;;20.85;93.57;100134.53;2928171;80;21084;-86
2022/06/27 02:24:23;;;;;;;21.20;17.23;;;;;;;20.73;93.25;100137.41;2946361;80;21042;-86
2022/06/27 02:28:28;;;;;;;18.20;16.40;;;;;;;20.58;92.70;100141.03;2832345;80;21018;-86
2022/06/27 02:32:29;;;;;;;21.00;19.00;;;;;;;20.45;93.35;100142.30;2876967;80;21081;-86
2022/06/27 02:36:36;;;;;;;21.80;19.50;;;;;;;20.48;93.90;100143.25;2939936;79;21667;-86
2022/06/27 02:40:40;;;;;;;21.37;19.05;;;;;;;20.53;93.31;100148.36;2944956;79;21054;-85
2022/06/27 02:44:43;;;;;;;21.35;19.20;;;;;;;20.62;93.08;100146.36;2911984;79;21050;-86
2022/06/27 02:48:48;;;;;;;20.92;16.95;;;;;;;20.67;93.03;100151.19;2943099;79;21041;-85
2022/06/27 02:52:53;;;;;;;18.90;17.05;;;;;;;20.71;93.26;100159.75;2940555;80;21877;-86
2022/06/27 02:57:10;;;;;;;;;;;;;;;20.61;93.31;100162.25;2941830;79;21568;-86
2022/06/27 03:01:13;;;;;;;22.15;19.30;;;;;;;20.61;94.57;100154.68;2942108;79;20100;-86
2022/06/27 03:05:14;;;;;;;18.95;17.02;;;;;;;20.65;94.36;100158.16;2907126;80;20984;-88
2022/06/27 03:09:18;;;;;;;26.90;18.02;;;;;;;20.70;94.30;100156.20;2943616;80;21027;-86
2022/06/27 03:13:19;;;;;;;23.92;18.48;;;;;;;20.63;94.37;100158.84;2946918;79;21002;-87
2022/06/27 03:17:20;;;;;;;24.65;17.07;;;;;;;20.60;94.34;100161.94;2931660;79;21027;-87
2022/06/27 03:21:21;;;;;;;18.62;16.73;;;;;;;20.72;94.23;100164.94;2928124;80;21561;-86
2022/06/27 03:25:23;;;;;;;18.30;16.45;;;;;;;20.79;93.53;100165.00;2901514;80;21067;-87
2022/06/27 03:29:24;;;;;;;17.42;15.63;;;;;;;20.69;93.12;100164.83;2892834;80;20999;-87
2022/06/27 03:33:25;;;;;;;22.58;18.82;;;;;;;20.58;93.61;100163.18;2850711;80;21018;-86
2022/06/27 03:37:26;;;;;;;17.92;15.93;;;;;;;20.62;94.02;100162.58;2953119;79;21011;-88
2022/06/27 03:41:27;;;;;;;18.70;16.90;;;;;;;20.81;93.86;100161.61;2968795;78;21225;-87
2022/06/27 03:45:28;;;;;;;22.37;18.73;;;;;;;20.92;92.95;100164.28;2967855;78;21003;-87
2022/06/27 03:53:48;;;;;;;19.70;17.85;;;;;;;21.17;92.19;100167.36;2946123;79;21051;-88
2022/06/27 03:57:53;;;;;;;19.82;17.82;;;;;;;21.28;92.42;100175.97;2945461;78;20987;-86
2022/06/27 04:01:54;;;;;;;20.60;18.42;;;;;;;21.37;92.51;100181.52;2965157;78;21534;-87
2022/06/27 04:05:55;;;;;;;20.32;18.32;;;;;;;21.45;92.55;100181.38;2943827;80;21058;-86
2022/06/27 04:09:58;;;;;;;19.92;17.65;;;;;;;21.58;92.38;100181.11;2920125;80;21038;-86
2022/06/27 04:13:59;;;;;;;20.23;18.05;;;;;;;21.69;92.60;100180.58;2935474;80;21085;-84
2022/06/27 04:18:00;;;;;;;21.87;19.30;;;;;;;21.90;92.87;100183.66;2921937;79;21502;-85
2022/06/27 04:22:01;;;;;;;19.75;17.80;;;;;;;22.13;92.66;100177.58;2917703;80;21667;-87
2022/06/27 04:26:02;;;;;;;21.37;19.30;;;;;;;22.61;90.82;100183.41;2909910;80;21091;-87
2022/06/27 04:30:04;;;;;;;21.87;19.02;;;;;;;23.47;87.73;100183.00;2928928;80;21023;-87
2022/06/27 04:34:06;;;;;;;18.70;16.73;;;;;;;24.51;84.45;100173.89;2943699;80;21078;-87
2022/06/27 04:38:07;;;;;;;17.80;16.12;;;;;;;25.49;80.19;100180.76;2939608;79;21042;-87
2022/06/27 04:42:09;;;;;;;15.63;13.95;;;;;;;26.12;75.62;100174.58;2931163;79;21026;-87
2022/06/27 04:46:10;;;;;;;17.67;13.22;;;;;;;26.71;72.54;100162.14;2930784;75;21007;-87
2022/06/27 04:50:15;;;;;;;12.43;11.20;;;;;;;27.17;69.13;100165.97;2915151;80;21097;-86
2022/06/27 04:54:22;;;;;;;12.13;10.93;;;;;;;27.49;67.94;100169.63;2940420;80;21074;-87
2022/06/27 04:58:23;;;;;;;15.50;13.28;;;;;;;28.03;67.06;100168.52;2915000;80;21050;-87
2022/06/27 05:02:24;;;;;;;14.00;11.78;;;;;;;28.53;66.11;100170.75;2876771;80;21022;-87
2022/06/27 05:06:25;;;;;;;12.43;11.15;;;;;;;28.66;64.27;100166.33;2875428;80;21720;-87
2022/06/27 05:10:26;;;;;;;11.05;9.18;;;;;;;29.00;63.41;100165.48;2955710;79;21017;-87
2022/06/27 05:14:27;;;;;;;11.68;10.58;;;;;;;29.37;62.13;100160.77;2979314;78;20977;-87
2022/06/27 05:18:29;;;;;;;10.38;9.28;;;;;;;29.58;60.01;100158.30;2910596;80;20990;-87
2022/06/27 05:22:30;;;;;;;9.33;8.53;;;;;;;29.50;60.26;100159.59;2899637;80;21079;-87
2022/06/27 05:26:31;;;;;;;9.38;8.48;;;;;;;29.68;59.77;100152.12;2911934;79;21086;-87
2022/06/27 05:30:33;;;;;;;10.70;8.93;;;;;;;29.87;59.52;100151.20;2917863;80;21050;-86
2022/06/27 05:34:34;;;;;;;10.90;9.60;;;;;;;30.09;58.17;100154.50;2937356;80;21019;-87
2022/06/27 05:38:37;;;;;;;10.40;9.50;;;;;;;30.10;57.64;100137.77;2927917;80;21109;-87
2022/06/27 05:42:38;;;;;;;9.93;8.65;;;;;;;30.14;57.38;100155.34;2912552;79;21112;-87
2022/06/27 05:46:40;;;;;;;14.23;8.45;;;;;;;30.05;57.25;100160.47;2910984;80;21086;-88
2022/06/27 05:50:42;;;;;;;9.83;8.25;;;;;;;29.97;57.33;100156.81;2917365;80;20982;-88
2022/06/27 05:54:44;;;;;;;8.85;7.53;;;;;;;29.94;57.62;100150.48;2942704;80;21050;-86
2022/06/27 05:58:46;;;;;;;7.47;6.70;;;;;;;29.97;57.12;100152.70;2930550;80;21051;-88
2022/06/27 06:02:47;;;;;;;8.48;7.70;;;;;;;30.06;57.64;100146.23;2897180;79;21005;-87
2022/06/27 06:06:49;;;;;;;9.75;8.85;;;;;;;30.24;56.93;100150.50;2897449;80;20992;-86
2022/06/27 06:10:50;;;;;;;10.23;8.23;;;;;;;30.39;55.94;100155.84;2933095;80;21048;-87
2022/06/27 06:14:52;;;;;;;7.78;7.17;;;;;;;30.54;56.20;100161.45;2924336;80;21014;-87
2022/06/27 06:18:54;;;;;;;9.50;8.50;;;;;;;30.76;56.24;100147.66;2856500;76;21435;-87
2022/06/27 06:22:56;;;;;;;9.35;7.17;;;;;;;30.99;55.13;100144.75;2924101;80;21576;-86
2022/06/27 06:39:57;;;;;;;8.08;6.72;;;;;;;31.93;52.30;100141.29;3011116;77;22950;-84
2022/06/27 06:44:00;;;;;;;11.03;6.78;;;;;;;32.20;52.70;100146.55;2948314;79;21057;-83
2022/06/27 06:48:02;;;;;;;12.47;7.33;;;;;;;32.44;51.32;100143.83;2980700;79;21034;-84
2022/06/27 06:52:03;;;;;;;8.35;6.85;;;;;;;32.32;50.29;100143.52;2978707;78;20975;-83
2022/06/27 06:56:05;;;;;;;8.20;6.65;;;;;;;32.34;50.44;100155.10;2980683;78;20999;-82
2022/06/27 07:00:10;;;;;;;10.28;7.83;;;;;;;32.30;50.03;100149.01;2981353;79;20998;-83
2022/06/27 07:04:12;;;;;;;7.08;5.95;;;;;;;32.43;50.00;100143.56;2985450;78;21010;-83
2022/06/27 07:08:13;;;;;;;6.42;5.92;;;;;;;32.56;49.67;100147.10;2977794;78;21049;-83
2022/06/27 07:12:15;;;;;;;6.30;5.70;;;;;;;32.76;48.86;100141.29;2976383;78;20990;-84
2022/06/27 07:16:18;;;;;;;22.50;8.68;;;;;;;33.03;48.61;100134.66;2983399;78;20995;-83
2022/06/27 07:20:20;;;;;;;6.25;5.67;;;;;;;33.35;48.12;100125.71;2979849;78;21030;-84
2022/06/27 07:24:22;;;;;;;8.10;6.67;;;;;;;33.47;47.02;100128.43;2955233;78;21537;-82
2022/06/27 07:28:26;;;;;;;6.60;5.10;;;;;;;33.44;46.44;100136.43;2984217;78;21015;-84
2022/06/27 07:32:29;;;;;;;17.40;6.00;;;;;;;33.39;46.86;100133.11;2981674;78;21028;-82
2022/06/27 07:36:32;;;;;;;6.75;5.47;;;;;;;33.41;46.34;100143.86;3001363;78;21161;-84
2022/06/27 07:40:35;;;;;;;7.47;5.47;;;;;;;33.52;46.34;100141.91;2973533;79;21306;-84
2022/06/27 07:44:38;;;;;;;7.65;5.70;;;;;;;33.66;46.26;100137.96;2950158;78;20971;-84
2022/06/27 07:48:40;;;;;;;9.97;5.37;;;;;;;33.67;45.13;100132.17;3001389;78;20944;-84
2022/06/27 07:57:02;;;;;;;5.65;5.10;;;;;;;33.81;45.67;100127.41;2985553;78;20982;-84
2022/06/27 08:01:07;;;;;;;6.97;6.28;;;;;;;34.01;44.82;100125.08;2998121;78;20991;-83
2022/06/27 08:05:09;;;;;;;7.55;4.92;;;;;;;34.14;44.45;100127.73;2983237;78;20987;-82
2022/06/27 08:09:11;;;;;;;6.75;4.85;;;;;;;34.26;43.69;100120.45;2973949;78;21003;-84
2022/06/27 08:13:13;;;;;;;67.70;11.15;;;;;;;34.36;44.59;100119.00;2976825;78;21033;-83
2022/06/27 08:17:14;;;;;;;5.15;4.33;;;;;;;34.47;41.89;100112.81;2977880;78;20975;-82
2022/06/27 08:21:19;;;;;;;5.95;5.17;;;;;;;34.69;41.96;100117.05;2974657;78;21026;-84
2022/06/27 08:25:21;;;;;;;9.25;5.05;;;;;;;34.79;41.65;100118.33;2958070;78;21003;-84
2022/06/27 08:29:23;;;;;;;9.30;4.53;;;;;;;34.93;42.39;100116.22;2977411;78;20966;-84
2022/06/27 08:33:25;;;;;;;9.33;5.53;;;;;;;35.01;41.84;100117.00;2980468;78;20998;-83
2022/06/27 08:37:27;;;;;;;5.12;4.05;;;;;;;34.89;41.05;100111.29;2973840;78;21034;-83
2022/06/27 08:41:29;;;;;;;7.62;5.00;;;;;;;34.86;41.38;100117.41;2980476;78;21025;-83
2022/06/27 08:45:30;;;;;;;7.97;4.50;;;;;;;35.01;41.68;100110.09;2915972;81;21003;-83
2022/06/27 08:49:33;;;;;;;4.67;4.08;;;;;;;35.12;40.51;100103.30;2844274;82;21036;-83
2022/06/27 08:53:37;;;;;;;8.20;4.60;;;;;;;35.13;41.07;100106.33;2925379;80;21058;-83
2022/06/27 08:57:46;;;;;;;3.95;3.58;;;;;;;35.08;40.88;100094.52;2890274;80;21058;-83
2022/06/27 09:01:48;;;;;;;3.55;3.10;;;;;;;35.01;41.07;100099.05;2910149;80;21011;-84
2022/06/27 09:06:02;;;;;;;5.37;4.30;;;;;;;35.09;40.28;100094.23;2890808;81;21088;-84
2022/06/27 09:10:30;;;;;;;3.87;3.55;;;;;;;35.16;40.92;100104.35;2883883;81;21026;-84
2022/06/27 09:14:43;;;;;;;6.10;3.95;;;;;;;35.29;39.78;100097.84;2739913;85;21078;-84
2022/06/27 09:18:44;;;;;;;6.37;4.12;;;;;;;35.37;40.42;100087.48;2746307;85;20994;-83
2022/06/27 09:22:48;;;;;;;6.50;4.85;;;;;;;35.46;41.36;100087.09;2776026;84;21097;-83
2022/06/27 09:26:49;;;;;;;4.97;4.17;;;;;;;35.56;39.78;100081.17;2824110;83;21684;-83
2022/06/27 09:30:52;;;;;;;4.75;3.47;;;;;;;35.51;40.40;100067.40;2824525;84;21032;-83
2022/06/27 09:34:54;;;;;;;6.22;3.72;;;;;;;35.53;39.89;100067.95;2766512;84;21423;-84
2022/06/27 09:38:57;;;;;;;5.42;4.15;;;;;;;35.56;40.01;100065.41;2791565;84;21070;-83
2022/06/27 09:42:58;;;;;;;9.25;4.50;;;;;;;35.60;41.08;100068.41;2753798;83;20967;-84
2022/06/27 09:47:16;;;;;;;93.45;15.72;;;;;;;35.86;40.58;100056.93;2875388;81;21169;-84
2022/06/27 09:51:18;;;;;;;4.25;3.70;;;;;;;35.79;39.42;100057.89;2919956;80;20995;-83
2022/06/27 09:55:23;;;;;;;6.45;4.05;;;;;;;35.72;40.28;100039.71;2920118;80;21070;-83
2022/06/27 09:59:25;;;;;;;14.60;4.20;;;;;;;35.69;40.28;100046.42;2912612;80;21031;-84
2022/06/27 10:03:31;;;;;;;4.05;3.17;;;;;;;35.55;40.62;100040.27;2924606;80;21086;-83
2022/06/27 10:07:31;;;;;;;;;;;;;;;35.55;40.72;100036.67;2911029;80;21007;-83
2022/06/27 10:11:32;;;;;;;3.35;3.05;;;;;;;35.59;40.66;100039.11;2924135;80;20111;-82
2022/06/27 10:15:37;;;;;;;4.17;2.42;;;;;;;35.65;40.68;100035.13;2909751;80;21019;-83
2022/06/27 10:20:00;;;;;;;8.75;2.80;;;;;;;35.59;40.17;100023.91;2920610;80;21034;-83
2022/06/27 10:24:24;;;;;;;3.20;2.90;;;;;;;35.67;39.72;100019.05;2905182;80;21775;-84
2022/06/27 10:28:25;;;;;;;3.80;3.50;;;;;;;35.61;39.90;100018.89;2918435;80;21003;-83
2022/06/27 10:32:44;;;;;;;3.25;2.77;;;;;;;35.42;39.79;100014.17;2940872;79;21062;-82
2022/06/27 10:36:46;;;;;;;5.17;2.77;;;;;;;35.26;39.83;100009.98;2861878;83;21038;-83
2022/06/27 10:40:48;;;;;;;22.07;6.15;;;;;;;35.39;40.83;100007.86;2917744;81;20975;-82
2022/06/27 10:44:50;;;;;;;6.45;3.17;;;;;;;35.67;41.60;99996.09;2940108;80;20998;-83
2022/06/27 10:48:57;;;;;;;14.20;3.52;;;;;;;35.65;38.68;100006.09;2934251;80;20987;-82
2022/06/27 10:53:21;;;;;;;4.65;3.10;;;;;;;35.77;40.96;100002.02;2928256;80;21089;-83
2022/06/27 10:57:38;;;;;;;4.50;2.30;;;;;;;35.91;40.21;99998.73;2973819;78;20971;-84
2022/06/27 11:01:44;;;;;;;3.05;2.80;;;;;;;35.87;39.69;99993.55;2972997;78;21463;-82
2022/06/27 11:06:04;;;;;;;3.87;3.42;;;;;;;35.87;40.57;99992.17;2860717;81;21054;-84
2022/06/27 11:10:07;;;;;;;3.45;3.15;;;;;;;36.00;41.67;99985.85;2867717;80;20988;-83
2022/06/27 11:14:09;;;;;;;7.20;4.20;;;;;;;35.99;40.31;99991.13;2897607;81;21014;-82
2022/06/27 11:18:11;;;;;;;3.47;3.17;;;;;;;35.85;42.16;99983.36;2865795;81;21019;-82
2022/06/27 11:22:22;;;;;;;3.42;2.70;;;;;;;35.79;42.61;99979.85;2888936;81;20959;-83
2022/06/27 11:26:29;;;;;;;3.62;3.12;;;;;;;35.79;41.56;99984.58;2886656;80;21030;-83
2022/06/27 11:34:56;;;;;;;4.95;2.85;;;;;;;35.78;42.41;99984.32;2878282;81;21044;-83
2022/06/27 11:38:57;;;;;;;4.53;3.22;;;;;;;35.84;41.72;99990.02;2889914;81;21051;-82
2022/06/27 11:42:59;;;;;;;4.75;4.22;;;;;;;36.03;41.52;99980.28;2896061;80;21089;-83
2022/06/27 11:47:06;;;;;;;81.67;13.38;;;;;;;35.93;42.27;99977.11;2873010;81;21133;-83
2022/06/27 11:51:25;;;;;;;2.80;2.60;;;;;;;36.01;43.36;99973.66;2877004;80;21030;-84
2022/06/27 11:55:27;;;;;;;2.30;2.12;;;;;;;36.17;41.43;99965.09;2881872;81;21055;-84
2022/06/27 11:59:29;;;;;;;2.62;2.42;;;;;;;36.59;41.45;99963.72;2881769;80;21223;-83
2022/06/27 12:03:31;;;;;;;4.92;2.45;;;;;;;36.44;39.94;99970.37;2916250;80;21050;-83
2022/06/27 12:07:55;;;;;;;7.00;3.10;;;;;;;36.47;39.76;99968.36;2913303;81;21011;-82
2022/06/27 12:12:08;;;;;;;2.10;1.90;;;;;;;36.30;40.45;99968.41;2889656;81;21022;-83
2022/06/27 12:16:11;;;;;;;2.27;1.77;;;;;;;36.38;40.82;99964.69;2877900;81;21059;-82
2022/06/27 12:20:12;;;;;;;2.98;2.12;;;;;;;36.55;39.09;99964.89;2875121;81;21063;-82
2022/06/27 12:24:15;;;;;;;4.12;2.35;;;;;;;36.69;39.26;99955.75;2906597;80;21062;-84
2022/06/27 12:28:17;;;;;;;3.20;2.37;;;;;;;36.53;40.12;99953.30;2893707;81;20959;-82
2022/06/27 12:32:18;;;;;;;2.72;2.52;;;;;;;36.65;40.35;99940.89;2883358;81;21003;-83
2022/06/27 12:36:20;;;;;;;4.42;2.65;;;;;;;36.58;39.50;99931.61;2905012;81;20983;-84
2022/06/27 12:40:22;;;;;;;2.95;1.77;;;;;;;36.79;40.76;99943.08;2874819;80;21027;-82
2022/06/27 12:44:25;;;;;;;27.55;7.62;;;;;;;36.85;39.28;99945.97;2882818;81;21019;-83
2022/06/27 12:48:27;;;;;;;2.52;2.33;;;;;;;36.59;40.03;99939.63;2887362;81;21068;-83
2022/06/27 12:52:29;;;;;;;5.80;2.08;;;;;;;36.52;39.65;99935.05;2892281;81;21078;-83
2022/06/27 12:56:31;;;;;;;3.72;1.80;;;;;;;36.59;40.15;99927.16;2890662;81;21050;-83
2022/06/27 13:00:32;;;;;;;3.87;1.55;;;;;;;36.77;40.24;99935.64;2878654;81;21199;-83
2022/06/27 13:04:36;;;;;;;2.40;2.08;;;;;;;36.76;39.87;99938.71;2898304;81;20979;-83
2022/06/27 13:08:38;;;;;;;2.20;2.00;;;;;;;36.91;40.06;99922.30;2887653;81;21034;-84
2022/06/27 13:12:42;;;;;;;11.18;4.58;;;;;;;36.97;40.22;99919.09;2883246;81;21004;-83
2022/06/27 13:16:44;;;;;;;2.37;2.02;;;;;;;36.94;40.20;99926.66;2876634;81;20995;-83
2022/06/27 13:20:46;;;;;;;2.90;2.12;;;;;;;36.80;40.71;99925.87;2876293;81;21027;-82
2022/06/27 13:24:47;;;;;;;1.60;1.50;;;;;;;36.71;40.32;99917.47;2887596;81;21514;-83
2022/06/27 13:28:49;;;;;;;1.70;1.60;;;;;;;36.86;39.61;99925.45;2846885;81;21062;-83
2022/06/27 13:32:51;;;;;;;5.97;2.17;;;;;;;36.76;39.79;99920.70;2878190;81;21284;-86
2022/06/27 13:36:52;;;;;;;1.70;1.57;;;;;;;36.82;40.12;99918.89;2896738;81;20975;-85
2022/06/27 13:40:54;;;;;;;5.37;1.70;;;;;;;37.07;39.09;99908.36;2913498;81;20996;-85
2022/06/27 13:44:55;;;;;;;6.80;2.37;;;;;;;37.23;38.53;99910.19;2885496;81;20983;-85
2022/06/27 13:48:57;;;;;;;1.50;1.40;;;;;;;37.35;38.83;99912.41;2882301;81;21038;-85
2022/06/27 13:52:59;;;;;;;1.17;0.90;;;;;;;37.29;37.28;99911.72;2859331;81;21545;-84
2022/06/27 13:57:00;;;;;;;1.82;1.52;;;;;;;37.40;37.14;99904.51;2893365;80;21038;-83
2022/06/27 14:01:04;;;;;;;1.32;1.00;;;;;;;37.54;37.34;99903.90;2843185;81;21007;-83
2022/06/27 14:05:06;;;;;;;2.33;1.15;;;;;;;37.79;36.76;99909.09;2880656;80;21141;-83
2022/06/27 14:09:08;;;;;;;1.60;0.93;;;;;;;37.92;37.18;99917.06;2851041;83;21061;-83
2022/06/27 14:13:10;;;;;;;1.07;0.98;;;;;;;38.03;36.82;99899.58;2830648;83;21055;-83
2022/06/27 14:17:12;;;;;;;1.90;1.20;;;;;;;38.12;36.78;99894.86;2886685;80;21035;-81
2022/06/27 14:21:14;;;;;;;20.85;3.25;;;;;;;38.02;36.54;99892.39;2915152;81;20966;-84
2022/06/27 14:25:18;;;;;;;1.60;1.50;;;;;;;37.97;36.95;99884.99;2897372;81;20981;-86
2022/06/27 14:29:19;;;;;;;2.92;1.27;;;;;;;38.06;37.33;99883.11;2852039;81;21015;-84
2022/06/27 14:33:21;;;;;;;8.88;1.27;;;;;;;37.96;37.05;99877.25;2864117;82;20988;-83
2022/06/27 14:37:23;;;;;;;1.98;1.07;;;;;;;38.04;36.59;99871.52;2835735;82;21016;-83
2022/06/27 14:41:24;;;;;;;1.90;1.80;;;;;;;37.83;36.19;99881.78;2900900;81;20963;-83
2022/06/27 14:45:26;;;;;;;1.80;1.70;;;;;;;37.99;39.00;99880.80;2829858;82;21054;-83
2022/06/27 14:49:28;;;;;;;1.15;1.05;;;;;;;38.15;38.49;99871.45;2857707;81;20983;-84
2022/06/27 14:53:31;;;;;;;5.08;1.98;;;;;;;38.12;37.94;99869.31;2881091;81;20995;-84
2022/06/27 14:57:32;;;;;;;3.00;1.75;;;;;;;38.27;37.83;99876.37;2859377;81;21046;-84
2022/06/27 15:01:34;;;;;;;1.87;1.67;;;;;;;38.35;37.70;99857.29;2879380;81;21058;-83
2022/06/27 15:05:36;;;;;;;1.77;1.50;;;;;;;38.24;38.28;99863.14;2862316;81;21054;-84
2022/06/27 15:09:37;;;;;;;1.62;1.52;;;;;;;38.41;38.10;99860.14;2871465;81;21102;-83
2022/06/27 15:13:40;;;;;;;2.50;1.30;;;;;;;38.40;37.68;99862.68;2859969;81;21303;-84
2022/06/27 15:17:42;;;;;;;1.60;1.50;;;;;;;38.14;38.71;99857.91;2931047;78;20978;-85
2022/06/27 15:21:45;;;;;;;2.35;1.75;;;;;;;38.04;38.86;99857.63;2952488;79;21052;-84
2022/06/27 15:25:48;;;;;;;2.33;2.15;;;;;;;38.06;39.58;99869.78;2970136;78;20987;-82
2022/06/27 15:29:50;;;;;;;2.57;1.90;;;;;;;38.03;39.08;99857.94;2920787;79;21014;-83
2022/06/27 15:33:52;;;;;;;4.53;2.52;;;;;;;38.05;38.96;99859.82;2964800;78;21018;-84
2022/06/27 15:37:57;;;;;;;38.80;7.22;;;;;;;38.14;38.91;99862.06;2964215;80;20939;-84
2022/06/27 15:41:59;;;;;;;60.85;13.53;;;;;;;38.05;39.64;99868.16;2943579;80;20947;-86
2022/06/27 15:46:01;;;;;;;3.35;2.22;;;;;;;38.04;38.56;99861.80;2946780;80;21530;-84
2022/06/27 15:50:04;;;;;;;2.70;2.12;;;;;;;37.94;38.41;99860.11;2840722;82;21545;-84
2022/06/27 15:54:05;;;;;;;5.22;2.25;;;;;;;37.96;39.95;99862.54;2848389;82;21002;-85
2022/06/27 15:58:07;;;;;;;4.55;1.92;;;;;;;38.03;39.14;99866.27;2842689;82;21046;-84
2022/06/27 16:02:10;;;;;;;6.20;2.42;;;;;;;37.84;39.35;99882.02;2863319;82;21034;-85
2022/06/27 16:06:11;;;;;;;3.92;1.92;;;;;;;37.85;39.56;99878.66;2833943;83;21441;-84
2022/06/27 16:10:13;;;;;;;3.08;1.82;;;;;;;37.80;39.93;99876.84;2808893;82;20987;-84
2022/06/27 16:14:15;;;;;;;23.70;6.33;;;;;;;37.88;39.22;99883.56;2839770;82;21030;-84
2022/06/27 16:18:17;;;;;;;2.25;2.00;;;;;;;37.44;39.49;99884.73;2848393;82;21074;-83
2022/06/27 16:22:22;;;;;;;2.17;1.82;;;;;;;37.24;39.95;99890.22;2882410;81;21003;-84
2022/06/27 16:26:23;;;;;;;2.30;1.85;;;;;;;36.91;40.52;99890.43;2842119;83;21062;-86
2022/06/27 16:34:44;;;;;;;4.55;2.47;;;;;;;36.41;41.59;99881.00;2825568;83;21067;-84
2022/06/27 16:38:46;;;;;;;3.83;2.58;;;;;;;36.28;41.85;99883.47;2837891;82;20999;-85
2022/06/27 16:47:08;;;;;;;4.47;2.45;;;;;;;36.09;43.22;99888.30;2829161;81;21052;-83
2022/06/27 16:51:10;;;;;;;2.05;1.82;;;;;;;35.99;43.32;99887.91;2799870;83;21046;-84
2022/06/27 16:55:12;;;;;;;6.05;2.20;;;;;;;35.77;43.74;99878.37;2839171;83;21003;-85
2022/06/27 16:59:13;;;;;;;5.47;2.00;;;;;;;35.49;44.41;99885.77;2835630;83;21043;-84
2022/06/27 17:03:18;;;;;;;2.58;2.37;;;;;;;35.24;45.15;99892.00;2809580;82;20966;-85
2022/06/27 17:07:19;;;;;;;4.70;2.70;;;;;;;35.12;45.82;99893.28;2804586;83;20995;-84
2022/06/27 17:11:21;;;;;;;3.27;2.90;;;;;;;35.05;45.59;99895.61;2841360;82;21089;-83
2022/06/27 17:15:22;;;;;;;9.93;3.85;;;;;;;34.95;46.05;99895.73;2843491;83;21027;-84
2022/06/27 17:19:24;;;;;;;7.10;3.10;;;;;;;34.76;46.07;99895.17;2812727;83;21239;-83
2022/06/27 17:23:26;;;;;;;3.70;2.30;;;;;;;34.59;46.08;99899.29;2882106;82;21054;-85
2022/06/27 17:27:28;;;;;;;2.72;2.20;;;;;;;34.46;46.50;99895.27;2875308;82;20988;-84
2022/06/27 17:31:30;;;;;;;11.93;4.42;;;;;;;34.33;46.63;99902.91;2834264;82;21041;-85
2022/06/27 17:35:32;;;;;;;2.98;2.77;;;;;;;34.20;46.81;99904.45;2858043;82;21026;-82
2022/06/27 17:39:34;;;;;;;4.95;3.08;;;;;;;34.07;47.17;99910.66;2853951;82;20987;-85
2022/06/27 17:43:36;;;;;;;3.17;2.22;;;;;;;33.91;47.93;99923.20;2850214;82;20975;-85
2022/06/27 17:47:37;;;;;;;5.67;2.37;;;;;;;33.76;47.95;99920.86;2819757;82;21189;-85
2022/06/27 17:51:40;;;;;;;5.25;2.62;;;;;;;33.71;48.17;99927.81;2869366;82;21034;-88
2022/06/27 17:55:41;;;;;;;7.55;2.87;;;;;;;33.58;48.61;99927.09;2845236;82;21594;-88
2022/06/27 17:59:43;;;;;;;2.50;2.30;;;;;;;33.47;49.10;99940.98;2857866;82;21008;-85
2022/06/27 18:03:44;;;;;;;6.25;2.65;;;;;;;33.36;49.53;99938.00;2840098;82;21029;-87
2022/06/27 18:07:46;;;;;;;5.17;3.10;;;;;;;33.26;49.48;99934.77;2860466;82;21026;-86
2022/06/27 18:11:49;;;;;;;5.58;2.80;;;;;;;33.09;49.79;99931.58;2864072;82;21034;-86
2022/06/27 18:15:50;;;;;;;6.55;3.12;;;;;;;32.86;51.07;99930.61;2857055;81;21062;-86
2022/06/27 18:19:53;;;;;;;3.60;3.02;;;;;;;32.58;51.87;99938.44;2839282;83;21042;-87
2022/06/27 18:23:55;;;;;;;3.40;3.08;;;;;;;32.31;52.26;99936.03;2818348;83;20984;-82
2022/06/27 18:27:57;;;;;;;7.65;2.87;;;;;;;32.11;52.49;99938.31;2832918;83;21054;-85
2022/06/27 18:31:58;;;;;;;2.72;2.47;;;;;;;31.86;52.85;99943.57;2874759;81;21812;-84
2022/06/27 18:36:00;;;;;;;7.10;3.45;;;;;;;31.70;53.16;99944.11;2864348;82;21686;-85
2022/06/27 18:40:03;;;;;;;4.22;2.72;;;;;;;31.57;53.37;99941.91;2790190;82;21043;-85
2022/06/27 18:44:05;;;;;;;4.62;3.17;;;;;;;31.36;53.95;99931.48;2866681;82;21002;-85
2022/06/27 18:48:10;;;;;;;63.00;11.75;;;;;;;31.13;54.40;99928.95;2876272;82;21026;-84
2022/06/27 18:52:13;;;;;;;7.25;2.87;;;;;;;30.90;55.18;99928.89;2940564;80;20956;-84
2022/06/27 18:56:19;;;;;;;3.22;2.92;;;;;;;30.69;55.44;99919.22;2953510;79;21027;-83
2022/06/27 19:00:20;;;;;;;5.85;3.25;;;;;;;30.55;55.98;99919.41;2940792;79;20995;-83
2022/06/27 19:04:22;;;;;;;5.62;3.22;;;;;;;30.41;56.10;99917.71;2926523;80;20963;-85
2022/06/27 19:08:24;;;;;;;3.87;2.77;;;;;;;30.34;56.36;99918.80;2849849;83;21023;-85
2022/06/27 19:12:26;;;;;;;3.62;3.00;;;;;;;30.25;56.80;99919.00;2890444;81;21030;-85
2022/06/27 19:16:31;;;;;;;3.45;3.15;;;;;;;30.12;57.24;99917.57;2852796;83;21049;-84
2022/06/27 19:20:33;;;;;;;3.40;3.10;;;;;;;30.01;57.29;99924.88;2801355;83;21356;-85
2022/06/27 19:24:35;;;;;;;4.78;3.20;;;;;;;29.81;57.96;99931.60;2849152;83;21050;-85